createdAt,value
2022-08-26T00:02:12.532Z,20.80
2022-08-26T00:04:40.671Z,20.76
2022-08-26T00:07:08.276Z,20.77
2022-08-26T00:09:39.152Z,20.80
2022-08-26T00:12:09.552Z,20.84
2022-08-26T00:14:40.087Z,20.84
2022-08-26T00:17:08.590Z,20.78
2022-08-26T00:19:36.073Z,20.75
2022-08-26T00:22:03.904Z,20.77
2022-08-26T00:24:31.253Z,20.81
2022-08-26T00:26:58.735Z,20.77
2022-08-26T00:29:26.086Z,20.78
2022-08-26T00:31:53.473Z,20.81
2022-08-26T00:34:20.900Z,20.83
2022-08-26T00:36:49.236Z,20.84
2022-08-26T00:39:20.814Z,20.85
2022-08-26T00:41:48.663Z,20.87
2022-08-26T00:44:17.645Z,20.88
2022-08-26T00:46:59.411Z,20.90
2022-08-26T00:49:47.417Z,20.91
2022-08-26T00:52:21.693Z,20.95
2022-08-26T00:55:19.741Z,20.87
2022-08-26T00:57:51.202Z,20.84
2022-08-26T01:00:26.621Z,20.79
2022-08-26T01:02:56.067Z,20.74
2022-08-26T01:05:24.552Z,20.74
2022-08-26T01:07:52.157Z,20.76
2022-08-26T01:10:31.265Z,20.71
2022-08-26T01:13:07.116Z,20.69
2022-08-26T01:15:51.114Z,20.68
2022-08-26T01:18:19.949Z,20.65
2022-08-26T01:21:10.134Z,20.66
2022-08-26T01:23:51.694Z,20.59
2022-08-26T01:26:40.479Z,20.52
2022-08-26T01:29:14.894Z,20.52
2022-08-26T01:31:57.404Z,20.52
2022-08-26T01:34:37.481Z,20.50
2022-08-26T01:37:15.921Z,20.52
2022-08-26T01:39:49.899Z,20.53
2022-08-26T01:42:19.889Z,20.53
2022-08-26T01:44:59.299Z,20.52
2022-08-26T01:47:30.880Z,20.52
2022-08-26T01:50:06.314Z,20.48
2022-08-26T01:52:41.438Z,20.50
2022-08-26T01:55:14.991Z,20.50
2022-08-26T01:57:59.900Z,20.46
2022-08-26T02:00:27.459Z,20.43
2022-08-26T02:03:17.204Z,20.42
2022-08-26T02:06:03.852Z,20.39
2022-08-26T02:08:47.893Z,20.40
2022-08-26T02:11:16.709Z,20.48
2022-08-26T02:13:55.617Z,20.44
2022-08-26T02:16:28.614Z,20.43
2022-08-26T02:19:00.211Z,20.44
2022-08-26T02:21:29.127Z,20.40
2022-08-26T02:24:13.722Z,20.40
2022-08-26T02:26:43.186Z,20.40
2022-08-26T02:29:41.354Z,20.35
2022-08-26T02:32:11.029Z,20.35
2022-08-26T02:34:38.837Z,20.32
2022-08-26T02:37:11.223Z,20.30
2022-08-26T02:39:42.715Z,20.29
2022-08-26T02:42:10.721Z,20.28
2022-08-26T02:44:38.349Z,20.28
2022-08-26T02:47:07.532Z,20.30
2022-08-26T02:49:36.755Z,20.28
2022-08-26T02:52:07.219Z,20.27
2022-08-26T02:54:35.120Z,20.23
2022-08-26T02:57:04.011Z,20.21
2022-08-26T02:59:35.945Z,20.20
2022-08-26T03:02:03.846Z,20.20
2022-08-26T03:04:33.488Z,20.20
2022-08-26T03:07:01.072Z,20.20
2022-08-26T03:09:28.703Z,20.19
2022-08-26T03:11:56.139Z,20.14
2022-08-26T03:14:24.184Z,20.14
2022-08-26T03:16:54.001Z,20.13
2022-08-26T03:19:24.782Z,20.13
2022-08-26T03:21:57.940Z,20.13
2022-08-26T03:24:26.937Z,20.10
2022-08-26T03:26:54.211Z,20.07
2022-08-26T03:29:41.590Z,20.04
2022-08-26T03:32:09.950Z,20.01
2022-08-26T03:34:38.012Z,19.99
2022-08-26T03:37:06.340Z,19.96
2022-08-26T03:39:33.789Z,19.97
2022-08-26T03:42:01.576Z,19.98
2022-08-26T03:44:29.098Z,19.99
2022-08-26T03:46:56.600Z,19.98
2022-08-26T03:49:24.145Z,19.95
2022-08-26T03:51:51.555Z,19.94
2022-08-26T03:54:19.170Z,19.92
2022-08-26T03:56:46.729Z,19.89
2022-08-26T03:59:14.085Z,19.86
2022-08-26T04:01:41.917Z,19.86
2022-08-26T04:04:09.441Z,19.85
2022-08-26T04:06:43.360Z,19.85
2022-08-26T04:09:20.162Z,19.86
2022-08-26T04:11:50.343Z,19.88
2022-08-26T04:14:26.400Z,19.90
2022-08-26T04:16:56.383Z,19.88
2022-08-26T04:19:25.914Z,19.90
2022-08-26T04:21:54.716Z,19.89
2022-08-26T04:24:27.176Z,19.89
2022-08-26T04:26:56.612Z,19.88
2022-08-26T04:29:26.819Z,19.88
2022-08-26T04:31:58.840Z,19.89
2022-08-26T04:34:29.117Z,19.92
2022-08-26T04:36:58.432Z,19.93
2022-08-26T04:39:27.684Z,19.93
2022-08-26T04:41:56.014Z,19.95
2022-08-26T04:44:29.275Z,19.99
2022-08-26T04:46:58.518Z,20.01
2022-08-26T04:49:29.430Z,20.02
2022-08-26T04:52:05.213Z,20.07
2022-08-26T04:54:32.771Z,20.08
2022-08-26T04:57:03.472Z,20.06
2022-08-26T04:59:30.765Z,20.06
2022-08-26T05:01:59.678Z,20.06
2022-08-26T05:04:28.410Z,20.04
2022-08-26T05:07:02.805Z,20.02
2022-08-26T05:09:30.638Z,20.04
2022-08-26T05:12:00.757Z,20.06
2022-08-26T05:14:31.186Z,20.07
2022-08-26T05:16:58.549Z,20.07
2022-08-26T05:19:27.984Z,20.08
2022-08-26T05:21:55.527Z,20.05
2022-08-26T05:24:23.428Z,20.03
2022-08-26T05:26:50.744Z,20.03
2022-08-26T05:29:18.829Z,20.08
2022-08-26T05:31:55.953Z,20.13
2022-08-26T05:34:30.066Z,20.13
2022-08-26T05:36:58.309Z,20.11
2022-08-26T05:39:25.878Z,20.11
2022-08-26T05:41:53.348Z,20.09
2022-08-26T05:44:23.844Z,20.05
2022-08-26T05:46:51.867Z,20.04
2022-08-26T05:49:20.311Z,20.03
2022-08-26T05:51:50.011Z,20.05
2022-08-26T05:54:22.371Z,20.07
2022-08-26T05:56:51.933Z,20.10
2022-08-26T05:59:23.916Z,20.11
2022-08-26T06:01:54.974Z,20.14
2022-08-26T06:04:29.134Z,20.16
2022-08-26T06:06:58.393Z,20.20
2022-08-26T06:09:28.524Z,20.22
2022-08-26T06:11:58.830Z,20.20
2022-08-26T06:14:26.192Z,20.21
2022-08-26T06:16:54.391Z,20.23
2022-08-26T06:19:22.527Z,20.26
2022-08-26T06:21:54.657Z,20.28
2022-08-26T06:24:41.048Z,20.29
2022-08-26T06:27:13.450Z,20.30
2022-08-26T06:29:41.853Z,20.28
2022-08-26T06:32:09.393Z,20.30
2022-08-26T06:34:37.194Z,20.35
2022-08-26T06:37:06.384Z,20.35
2022-08-26T06:39:35.310Z,20.38
2022-08-26T06:42:08.109Z,20.37
2022-08-26T06:44:35.516Z,20.40
2022-08-26T06:47:04.907Z,20.46
2022-08-26T06:49:32.213Z,20.47
2022-08-26T06:51:59.524Z,20.51
2022-08-26T06:54:31.704Z,20.56
2022-08-26T06:57:09.924Z,20.63
2022-08-26T06:59:37.441Z,20.69
2022-08-26T07:02:08.199Z,20.73
2022-08-26T07:04:35.763Z,20.78
2022-08-26T07:07:04.519Z,20.85
2022-08-26T07:09:38.162Z,20.88
2022-08-26T07:12:12.711Z,20.89
2022-08-26T07:14:47.289Z,20.88
2022-08-26T07:17:25.017Z,20.89
2022-08-26T07:19:53.655Z,20.84
2022-08-26T07:22:23.757Z,20.85
2022-08-26T07:24:57.557Z,20.88
2022-08-26T07:27:25.292Z,20.88
2022-08-26T07:29:57.518Z,20.84
2022-08-26T07:32:37.532Z,20.81
2022-08-26T07:35:06.469Z,20.84
2022-08-26T07:37:35.490Z,20.81
2022-08-26T07:40:07.653Z,20.82
2022-08-26T07:42:36.796Z,20.82
2022-08-26T07:45:05.920Z,20.86
2022-08-26T07:47:33.754Z,20.90
2022-08-26T07:50:01.273Z,20.94
2022-08-26T07:52:30.790Z,20.98
2022-08-26T07:55:02.539Z,21.03
2022-08-26T07:57:30.828Z,21.08
2022-08-26T08:00:02.386Z,21.17
2022-08-26T08:02:40.007Z,21.22
2022-08-26T08:05:09.072Z,21.26
2022-08-26T08:07:38.594Z,21.28
2022-08-26T08:10:25.967Z,21.31
2022-08-26T08:12:56.267Z,21.36
2022-08-26T08:15:28.816Z,21.42
2022-08-26T08:18:00.994Z,21.50
2022-08-26T08:20:33.298Z,21.57
2022-08-26T08:23:04.273Z,21.62
2022-08-26T08:25:34.526Z,21.66
2022-08-26T08:28:02.067Z,21.69
2022-08-26T08:30:29.892Z,21.77
2022-08-26T08:32:57.577Z,21.81
2022-08-26T08:35:26.538Z,21.88
2022-08-26T08:37:56.539Z,21.89
2022-08-26T08:40:27.519Z,21.98
2022-08-26T08:43:29.285Z,21.99
2022-08-26T08:46:12.519Z,21.99
2022-08-26T08:48:48.174Z,21.99
2022-08-26T08:52:00.753Z,21.98
2022-08-26T08:54:29.150Z,21.93
2022-08-26T08:57:17.072Z,21.89
2022-08-26T09:00:14.072Z,21.81
2022-08-26T09:03:09.734Z,21.75
2022-08-26T09:05:48.515Z,21.71
2022-08-26T09:08:32.369Z,21.71
2022-08-26T09:11:03.419Z,21.69
2022-08-26T09:13:31.755Z,21.75
2022-08-26T09:16:13.837Z,21.78
2022-08-26T09:19:15.247Z,21.81
2022-08-26T09:21:54.437Z,21.75
2022-08-26T09:24:28.591Z,21.71
2022-08-26T09:26:59.158Z,21.67
2022-08-26T09:29:32.323Z,21.65
2022-08-26T09:32:24.404Z,21.66
2022-08-26T09:35:00.587Z,21.69
2022-08-26T09:40:34.690Z,21.59
2022-08-26T09:43:22.144Z,21.50
2022-08-26T09:46:09.560Z,21.45
2022-08-26T09:48:41.557Z,21.43
2022-08-26T09:51:38.841Z,21.37
2022-08-26T09:54:08.160Z,21.29
2022-08-26T09:56:39.311Z,21.23
2022-08-26T09:59:12.094Z,21.13
2022-08-26T10:01:43.814Z,21.06
2022-08-26T10:04:21.441Z,20.95
2022-08-26T10:07:08.181Z,20.90
2022-08-26T10:09:43.406Z,20.89
2022-08-26T10:12:21.784Z,20.91
2022-08-26T10:15:00.061Z,20.89
2022-08-26T10:18:12.073Z,20.82
2022-08-26T10:21:02.653Z,20.82
2022-08-26T10:23:45.135Z,20.82
2022-08-26T10:26:46.059Z,20.83
2022-08-26T10:29:43.451Z,20.93
2022-08-26T10:32:45.814Z,20.93
2022-08-26T10:35:18.050Z,20.93
2022-08-26T10:38:10.807Z,20.95
2022-08-26T10:41:11.012Z,20.99
2022-08-26T10:43:56.346Z,21.02
2022-08-26T10:46:37.287Z,21.01
2022-08-26T10:49:17.755Z,21.01
2022-08-26T10:52:17.897Z,21.07
2022-08-26T10:55:34.906Z,21.13
2022-08-26T10:58:31.946Z,21.19
2022-08-26T11:01:33.744Z,21.23
2022-08-26T11:04:38.713Z,21.30
2022-08-26T11:07:56.377Z,21.36
2022-08-26T11:10:24.367Z,21.46
2022-08-26T11:13:05.097Z,21.58
2022-08-26T11:15:32.431Z,21.59
2022-08-26T11:18:11.698Z,21.62
2022-08-26T11:20:46.042Z,21.69
2022-08-26T11:23:23.423Z,21.72
2022-08-26T11:25:59.772Z,21.76
2022-08-26T11:28:44.130Z,21.75
2022-08-26T11:31:38.730Z,21.73
2022-08-26T11:34:12.698Z,21.74
2022-08-26T11:36:45.909Z,21.72
2022-08-26T11:39:56.982Z,21.70
2022-08-26T11:43:02.987Z,21.80
2022-08-26T11:45:43.131Z,21.79
2022-08-26T11:48:35.460Z,21.75
2022-08-26T11:51:20.341Z,21.71
2022-08-26T11:53:48.374Z,21.63
2022-08-26T11:56:38.175Z,21.53
2022-08-26T12:02:18.129Z,21.44
2022-08-26T12:04:51.853Z,21.56
2022-08-26T12:07:29.066Z,21.52
2022-08-26T12:10:02.226Z,21.52
2022-08-26T12:12:40.677Z,21.55
2022-08-26T12:15:22.213Z,21.59
2022-08-26T12:17:54.559Z,21.65
2022-08-26T12:20:48.394Z,21.72
2022-08-26T12:23:42.079Z,21.76
2022-08-26T12:26:31.925Z,21.81
2022-08-26T12:29:19.936Z,21.79
2022-08-26T12:31:48.257Z,21.72
2022-08-26T12:34:18.446Z,21.70
2022-08-26T12:36:55.837Z,21.66
2022-08-26T12:39:36.257Z,21.60
2022-08-26T12:42:12.478Z,21.52
2022-08-26T12:45:00.749Z,21.46
2022-08-26T12:47:44.307Z,21.39
2022-08-26T12:50:26.604Z,21.39
2022-08-26T12:53:04.165Z,21.35
2022-08-26T12:55:47.605Z,21.32
2022-08-26T12:58:35.939Z,21.31
2022-08-26T13:01:09.287Z,21.32
2022-08-26T13:03:43.838Z,21.34
2022-08-26T13:06:23.182Z,21.34
2022-08-26T13:09:00.678Z,21.36
2022-08-26T13:11:38.982Z,21.44
2022-08-26T13:14:24.244Z,21.55
2022-08-26T13:16:53.169Z,21.59
2022-08-26T13:19:29.135Z,21.59
2022-08-26T13:22:01.041Z,21.61
2022-08-26T13:24:41.872Z,21.58
2022-08-26T13:27:14.127Z,21.57
2022-08-26T13:29:42.067Z,21.55
2022-08-26T13:32:09.988Z,21.54
2022-08-26T13:34:39.034Z,21.55
2022-08-26T13:37:07.306Z,21.54
2022-08-26T13:39:35.330Z,21.59
2022-08-26T13:42:02.632Z,21.62
2022-08-26T13:44:30.051Z,21.66
2022-08-26T13:46:57.772Z,21.78
2022-08-26T13:49:25.610Z,21.94
2022-08-26T13:51:53.075Z,22.01
2022-08-26T13:54:20.552Z,22.05
2022-08-26T13:56:47.917Z,22.09
2022-08-26T13:59:15.415Z,22.15
2022-08-26T14:01:42.779Z,22.17
2022-08-26T14:04:10.275Z,22.16
2022-08-26T14:06:37.636Z,22.17
2022-08-26T14:09:05.488Z,22.16
2022-08-26T14:11:50.691Z,22.19
2022-08-26T14:14:20.673Z,22.18
2022-08-26T14:16:58.849Z,22.16
2022-08-26T14:19:30.243Z,22.24
2022-08-26T14:22:00.813Z,22.23
2022-08-26T14:24:29.108Z,22.17
2022-08-26T14:26:56.559Z,22.11
2022-08-26T14:29:25.078Z,22.10
2022-08-26T14:31:52.830Z,22.12
2022-08-26T14:34:20.264Z,22.14
2022-08-26T14:36:47.626Z,22.09
2022-08-26T14:39:15.029Z,22.01
2022-08-26T14:41:55.206Z,22.00
2022-08-26T14:44:31.264Z,21.89
2022-08-26T14:47:04.235Z,21.79
2022-08-26T14:49:31.833Z,21.70
2022-08-26T14:52:00.025Z,21.64
2022-08-26T14:54:29.299Z,21.57
2022-08-26T14:57:07.117Z,21.54
2022-08-26T14:59:50.084Z,21.54
2022-08-26T15:02:18.170Z,21.44
2022-08-26T15:05:01.173Z,21.32
2022-08-26T15:07:32.603Z,21.22
2022-08-26T15:10:00.290Z,21.16
2022-08-26T15:12:27.863Z,21.16
2022-08-26T15:14:55.334Z,21.59
2022-08-26T15:17:23.487Z,22.33
2022-08-26T15:19:52.173Z,22.96
2022-08-26T15:22:20.052Z,23.02
2022-08-26T15:24:47.483Z,23.75
2022-08-26T15:27:19.794Z,24.10
2022-08-26T15:29:47.237Z,24.25
2022-08-26T15:32:14.671Z,23.74
2022-08-26T15:34:42.043Z,23.20
2022-08-26T15:37:09.739Z,22.79
2022-08-26T15:39:37.231Z,22.49
2022-08-26T15:42:05.353Z,22.24
2022-08-26T15:44:34.106Z,22.06
2022-08-26T15:47:01.543Z,21.97
2022-08-26T15:49:29.029Z,21.97
2022-08-26T15:51:56.441Z,21.90
2022-08-26T15:54:24.442Z,21.78
2022-08-26T15:56:53.074Z,21.68
2022-08-26T15:59:22.299Z,21.59
2022-08-26T16:04:18.706Z,21.49
2022-08-26T16:06:50.439Z,21.28
2022-08-26T16:09:21.338Z,21.12
2022-08-26T16:11:49.992Z,21.04
2022-08-26T16:14:17.501Z,20.93
2022-08-26T16:16:45.037Z,20.90
2022-08-26T16:19:12.766Z,20.91
2022-08-26T16:21:41.737Z,20.93
2022-08-26T16:24:09.542Z,20.90
2022-08-26T16:26:41.265Z,20.88
2022-08-26T16:29:13.826Z,20.88
2022-08-26T16:31:42.330Z,20.88
2022-08-26T16:34:10.545Z,20.88
2022-08-26T16:36:40.474Z,20.93
2022-08-26T16:39:09.789Z,21.02
2022-08-26T16:41:37.654Z,21.08
2022-08-26T16:44:08.267Z,21.14
2022-08-26T16:46:36.535Z,21.19
2022-08-26T16:49:04.616Z,21.20
2022-08-26T16:51:38.093Z,21.21
2022-08-26T16:54:08.877Z,21.21
2022-08-26T16:56:37.921Z,21.19
2022-08-26T16:59:11.552Z,21.23
2022-08-26T17:01:39.099Z,21.22
2022-08-26T17:04:06.770Z,21.17
2022-08-26T17:06:34.296Z,21.18
2022-08-26T17:09:01.773Z,21.16
2022-08-26T17:11:29.178Z,21.11
2022-08-26T17:13:57.429Z,21.12
2022-08-26T17:16:27.116Z,21.05
2022-08-26T17:18:57.517Z,20.99
2022-08-26T17:21:26.380Z,20.94
2022-08-26T17:23:55.194Z,20.99
2022-08-26T17:26:22.776Z,20.96
2022-08-26T17:28:51.255Z,20.91
2022-08-26T17:31:20.307Z,20.90
2022-08-26T17:33:53.298Z,20.85
2022-08-26T17:36:27.501Z,20.82
2022-08-26T17:38:58.321Z,20.83
2022-08-26T17:41:26.718Z,20.75
2022-08-26T17:43:54.638Z,20.77
2022-08-26T17:46:22.615Z,20.71
2022-08-26T17:48:50.110Z,20.66
2022-08-26T17:51:19.855Z,20.53
2022-08-26T17:53:48.587Z,20.48
2022-08-26T17:56:24.168Z,20.46
2022-08-26T17:58:56.501Z,20.49
2022-08-26T18:01:27.576Z,20.39
2022-08-26T18:04:00.247Z,20.32
2022-08-26T18:06:30.690Z,20.29
2022-08-26T18:09:00.802Z,20.36
2022-08-26T18:11:32.109Z,20.35
2022-08-26T18:14:00.589Z,20.32
2022-08-26T18:16:32.115Z,20.32
2022-08-26T18:19:00.394Z,20.29
2022-08-26T18:21:28.345Z,20.25
2022-08-26T18:23:56.516Z,20.22
2022-08-26T18:26:31.903Z,20.19
2022-08-26T18:29:00.610Z,20.19
2022-08-26T18:31:29.164Z,20.09
2022-08-26T18:33:58.337Z,20.02
2022-08-26T18:36:33.318Z,20.02
2022-08-26T18:39:02.527Z,19.95
2022-08-26T18:41:33.719Z,19.94
2022-08-26T18:44:01.367Z,19.85
2022-08-26T18:46:29.010Z,19.84
2022-08-26T18:48:57.816Z,19.79
2022-08-26T18:51:33.006Z,19.77
2022-08-26T18:54:04.725Z,19.71
2022-08-26T18:56:35.173Z,19.75
2022-08-26T18:59:04.852Z,19.73
2022-08-26T19:01:34.349Z,19.73
2022-08-26T19:04:06.118Z,19.68
2022-08-26T19:06:36.063Z,19.64
2022-08-26T19:09:08.911Z,19.67
2022-08-26T19:11:42.998Z,19.67
2022-08-26T19:14:15.566Z,19.61
2022-08-26T19:16:48.559Z,19.59
2022-08-26T19:19:17.199Z,19.49
2022-08-26T19:21:45.493Z,19.51
2022-08-26T19:24:17.591Z,19.50
2022-08-26T19:26:51.349Z,19.43
2022-08-26T19:29:33.490Z,19.34
2022-08-26T19:32:03.041Z,19.35
2022-08-26T19:34:31.109Z,19.27
2022-08-26T19:36:59.125Z,19.28
2022-08-26T19:39:27.745Z,19.25
2022-08-26T19:41:55.137Z,19.23
2022-08-26T19:44:42.986Z,19.19
2022-08-26T19:47:12.109Z,19.17
2022-08-26T19:49:39.667Z,19.15
2022-08-26T19:52:09.251Z,19.14
2022-08-26T19:54:37.551Z,19.14
2022-08-26T19:57:06.117Z,19.12
2022-08-26T19:59:33.725Z,19.14
2022-08-26T20:02:01.992Z,19.11
2022-08-26T20:04:33.112Z,19.05
2022-08-26T20:07:03.196Z,19.02
2022-08-26T20:09:34.024Z,19.08
2022-08-26T20:12:05.115Z,19.06
2022-08-26T20:14:33.639Z,19.02
2022-08-26T20:17:02.684Z,19.02
2022-08-26T20:19:48.777Z,19.03
2022-08-26T20:22:17.450Z,19.07
2022-08-26T20:24:46.215Z,19.09
2022-08-26T20:27:15.470Z,19.08
2022-08-26T20:29:43.088Z,19.07
2022-08-26T20:32:11.999Z,19.05
2022-08-26T20:34:40.049Z,19.02
2022-08-26T20:37:08.475Z,19.04
2022-08-26T20:39:36.335Z,19.04
2022-08-26T20:42:06.667Z,19.04
2022-08-26T20:44:54.411Z,19.06
2022-08-26T20:47:23.166Z,19.08
2022-08-26T20:49:52.576Z,19.09
2022-08-26T20:52:20.827Z,19.10
2022-08-26T20:54:48.211Z,19.11
2022-08-26T20:57:15.776Z,19.14
2022-08-26T20:59:43.538Z,19.12
2022-08-26T21:02:11.019Z,19.10
2022-08-26T21:04:38.530Z,19.10
2022-08-26T21:07:06.068Z,19.14
2022-08-26T21:09:33.519Z,19.14
2022-08-26T21:12:00.855Z,19.09
2022-08-26T21:14:28.869Z,19.09
2022-08-26T21:16:57.258Z,19.08
2022-08-26T21:19:24.630Z,19.06
2022-08-26T21:21:52.073Z,19.03
2022-08-26T21:24:19.640Z,19.01
2022-08-26T21:26:48.027Z,18.96
2022-08-26T21:29:15.540Z,18.91
2022-08-26T21:31:46.628Z,18.89
2022-08-26T21:34:18.441Z,18.87
2022-08-26T21:36:49.831Z,18.86
2022-08-26T21:39:19.642Z,18.87
2022-08-26T21:41:47.560Z,18.87
2022-08-26T21:44:17.747Z,18.88
2022-08-26T21:46:46.951Z,18.85
2022-08-26T21:49:17.013Z,18.79
2022-08-26T21:51:48.395Z,18.75
2022-08-26T21:54:17.405Z,18.71
2022-08-26T21:56:47.394Z,18.70
2022-08-26T21:59:19.305Z,18.68
2022-08-26T22:01:47.571Z,18.63
2022-08-26T22:04:16.153Z,18.62
2022-08-26T22:06:49.558Z,18.63
2022-08-26T22:09:25.290Z,18.62
2022-08-26T22:11:56.539Z,18.63
2022-08-26T22:14:30.361Z,18.65
2022-08-26T22:16:59.768Z,18.61
2022-08-26T22:19:27.499Z,18.61
2022-08-26T22:21:56.772Z,18.59
2022-08-26T22:24:27.427Z,18.59
2022-08-26T22:26:56.114Z,18.54
2022-08-26T22:29:25.164Z,18.54
2022-08-26T22:31:52.937Z,18.51
2022-08-26T22:34:21.223Z,18.52
2022-08-26T22:36:50.830Z,18.52
2022-08-26T22:39:23.761Z,18.49
2022-08-26T22:41:53.841Z,18.48
2022-08-26T22:44:22.429Z,18.45
2022-08-26T22:46:54.165Z,18.47
2022-08-26T22:49:23.296Z,18.46
2022-08-26T22:51:51.927Z,18.43
2022-08-26T22:54:19.323Z,18.40
2022-08-26T22:56:46.719Z,18.34
2022-08-26T22:59:15.941Z,18.23
2022-08-26T23:01:44.683Z,18.19
2022-08-26T23:04:12.325Z,18.13
2022-08-26T23:06:43.432Z,18.09
2022-08-26T23:09:18.252Z,17.99
2022-08-26T23:11:48.635Z,17.90
2022-08-26T23:14:18.854Z,17.83
2022-08-26T23:16:47.893Z,17.76
2022-08-26T23:19:19.722Z,17.70
2022-08-26T23:21:48.421Z,17.68
2022-08-26T23:24:17.358Z,17.63
2022-08-26T23:26:46.408Z,17.58
2022-08-26T23:29:15.978Z,17.49
2022-08-26T23:31:44.211Z,17.43
2022-08-26T23:34:30.289Z,17.39
2022-08-26T23:36:59.459Z,17.36
2022-08-26T23:39:29.422Z,17.36
2022-08-26T23:41:57.994Z,17.34
2022-08-26T23:44:26.528Z,17.32
2022-08-26T23:46:55.065Z,17.27
2022-08-26T23:49:23.036Z,17.19
2022-08-26T23:52:08.764Z,17.13
2022-08-26T23:54:36.581Z,17.05
2022-08-26T23:57:04.330Z,17.00
2022-08-26T23:59:32.208Z,16.96
